Terminal Aerodrome Forecast
Issued by NWS

Home | Current Version | Previous Version | Text Only | Print | Product List | Glossary On
Versions: 1 2 3 4 5 6 7 8 9 10 11 12 13 14 15 16 17 18 19 20 21 22 23 24 25 26 27 28 29 30 31 32 33 34 35 36 37 38
354
FTUS43 KABR 242021 AAB
TAFATY
TAF AMD
KATY 242021Z 2420/2518 20011KT P6SM SCT025 BKN050
     FM242100 19015KT P6SM -SHRA VCTS BKN020 OVC060CB
     FM250100 18009KT P6SM BKN150
     FM250700 23010G17KT P6SM FEW200
     FM251400 29018G28KT P6SM OVC035=

USA.gov is the U.S. government's official web portal to all federal, state and local government web resources and services.